createdAt,value
2018-12-12T00:00:28.758Z,25.97
2018-12-12T00:01:28.718Z,25.89
2018-12-12T00:02:28.795Z,25.99
2018-12-12T00:03:28.677Z,25.91
2018-12-12T00:04:28.639Z,25.85
2018-12-12T00:05:28.626Z,25.88
2018-12-12T00:06:28.591Z,25.79
2018-12-12T00:07:28.740Z,25.78
2018-12-12T00:08:28.556Z,25.82
2018-12-12T00:09:28.516Z,25.85
2018-12-12T00:10:28.529Z,25.78
2018-12-12T00:11:28.469Z,25.74
2018-12-12T00:12:28.451Z,25.78
2018-12-12T00:13:28.533Z,25.75
2018-12-12T00:14:28.408Z,25.71
2018-12-12T00:15:28.371Z,25.71
2018-12-12T00:16:28.343Z,25.74
2018-12-12T00:17:28.318Z,25.69
2018-12-12T00:18:28.309Z,25.60
2018-12-12T00:19:28.379Z,25.62
2018-12-12T00:20:28.242Z,25.49
2018-12-12T00:21:28.233Z,25.51
2018-12-12T00:22:28.216Z,25.62
2018-12-12T00:23:28.186Z,25.60
2018-12-12T00:24:28.231Z,25.54
2018-12-12T00:25:28.316Z,25.56
2018-12-12T00:26:28.117Z,25.63
2018-12-12T00:27:28.077Z,25.57
2018-12-12T00:28:28.054Z,25.56
2018-12-12T00:29:28.030Z,25.45
2018-12-12T00:30:28.010Z,25.48
2018-12-12T00:31:28.133Z,25.49
2018-12-12T00:32:27.955Z,25.54
2018-12-12T00:33:27.952Z,25.51
2018-12-12T00:34:28.002Z,25.54
2018-12-12T00:35:27.936Z,25.45
2018-12-12T00:36:28.152Z,25.52
2018-12-12T00:37:27.842Z,25.57
2018-12-12T00:38:27.806Z,25.54
2018-12-12T00:39:29.674Z,25.48
2018-12-12T00:40:29.673Z,25.52
2018-12-12T00:41:27.838Z,25.47
2018-12-12T00:42:27.721Z,25.49
2018-12-12T00:43:27.687Z,25.48
2018-12-12T00:44:27.646Z,25.63
2018-12-12T00:45:27.634Z,25.56
2018-12-12T00:46:27.707Z,25.49
2018-12-12T00:47:27.661Z,25.54
2018-12-12T00:48:27.666Z,25.45
2018-12-12T00:49:27.556Z,25.45
2018-12-12T00:50:27.518Z,25.47
2018-12-12T00:51:27.543Z,25.47
2018-12-12T00:52:27.522Z,25.45
2018-12-12T00:53:27.408Z,25.41
2018-12-12T00:54:27.437Z,25.44
2018-12-12T00:55:27.424Z,25.41
2018-12-12T00:56:27.368Z,25.41
2018-12-12T00:57:27.423Z,25.33
2018-12-12T00:58:27.304Z,25.44
2018-12-12T00:59:27.298Z,25.45
2018-12-12T01:00:27.362Z,25.45
2018-12-12T01:01:27.229Z,25.44
2018-12-12T01:02:27.262Z,25.44
2018-12-12T01:03:27.283Z,25.49
2018-12-12T01:04:27.251Z,25.56
2018-12-12T01:05:27.141Z,25.59
2018-12-12T01:07:27.079Z,25.52
2018-12-12T01:08:27.160Z,25.44
2018-12-12T01:09:27.025Z,25.49
2018-12-12T01:10:27.027Z,25.59
2018-12-12T01:11:26.975Z,25.51
2018-12-12T01:12:26.975Z,25.44
2018-12-12T01:13:27.086Z,25.54
2018-12-12T01:14:26.908Z,25.51
2018-12-12T01:15:26.891Z,25.47
2018-12-12T01:16:26.898Z,25.57
2018-12-12T01:17:27.041Z,25.59
2018-12-12T01:18:27.095Z,25.57
2018-12-12T01:19:26.774Z,25.56
2018-12-12T01:20:26.747Z,25.54
2018-12-12T01:21:26.737Z,25.54
2018-12-12T01:22:26.698Z,25.32
2018-12-12T01:23:26.753Z,25.44
2018-12-12T01:24:26.654Z,25.33
2018-12-12T01:25:26.623Z,25.27
2018-12-12T01:26:26.610Z,25.30
2018-12-12T01:27:26.569Z,25.32
2018-12-12T01:28:26.696Z,25.33
2018-12-12T01:29:26.520Z,25.37
2018-12-12T01:30:26.498Z,25.23
2018-12-12T01:31:26.595Z,25.26
2018-12-12T01:32:26.440Z,25.27
2018-12-12T01:34:27.099Z,25.38
2018-12-12T01:35:26.376Z,25.38
2018-12-12T01:36:26.339Z,25.38
2018-12-12T01:37:26.336Z,25.29
2018-12-12T01:38:26.677Z,25.38
2018-12-12T01:39:26.547Z,25.30
2018-12-12T01:40:27.940Z,25.27
2018-12-12T01:41:26.712Z,25.20
2018-12-12T01:42:27.159Z,25.17
2018-12-12T01:43:26.798Z,25.12
2018-12-12T01:44:26.880Z,25.07
2018-12-12T01:45:26.943Z,25.08
2018-12-12T01:47:26.560Z,25.04
2018-12-12T01:48:26.675Z,25.11
2018-12-12T01:49:26.437Z,25.09
2018-12-12T01:50:26.420Z,25.05
2018-12-12T01:52:27.481Z,25.05
2018-12-12T01:53:26.283Z,24.87
2018-12-12T01:54:26.521Z,24.90
2018-12-12T01:55:26.823Z,25.01
2018-12-12T06:07:46.840Z,24.17
2018-12-12T06:08:46.716Z,24.26
2018-12-12T06:09:46.696Z,24.17
2018-12-12T06:10:46.661Z,24.36
2018-12-12T06:11:46.625Z,24.36
2018-12-12T06:12:46.778Z,24.46
2018-12-12T06:13:46.685Z,24.37
2018-12-12T06:14:46.573Z,24.36
2018-12-12T06:15:46.516Z,24.37
2018-12-12T06:16:46.521Z,24.32
2018-12-12T06:17:46.484Z,24.30
2018-12-12T06:18:46.556Z,24.26
2018-12-12T06:19:46.434Z,24.18
2018-12-12T06:20:46.396Z,24.19
2018-12-12T06:21:46.363Z,24.12
2018-12-12T06:22:46.345Z,24.07
2018-12-12T06:23:46.308Z,24.08
2018-12-12T06:24:46.380Z,24.03
2018-12-12T06:25:46.255Z,24.08
2018-12-12T06:26:46.238Z,23.92
2018-12-12T06:27:46.210Z,23.92
2018-12-12T06:28:46.186Z,23.82
2018-12-12T06:29:46.273Z,23.77
2018-12-12T06:30:46.215Z,23.77
2018-12-12T06:31:46.104Z,23.67
2018-12-12T06:32:46.112Z,23.47
2018-12-12T06:33:46.048Z,23.60
2018-12-12T06:34:46.096Z,23.50
2018-12-12T06:35:46.113Z,23.48
2018-12-12T06:36:45.977Z,23.50
2018-12-12T06:37:45.944Z,23.70
2018-12-12T06:38:46.024Z,23.70
2018-12-12T06:39:45.944Z,23.77
2018-12-12T06:40:46.019Z,23.82
2018-12-12T06:41:45.879Z,23.84
2018-12-12T06:42:45.822Z,23.81
2018-12-12T06:43:45.958Z,23.78
2018-12-12T06:44:46.009Z,23.77
2018-12-12T06:45:45.897Z,23.75
2018-12-12T06:46:45.799Z,23.77
2018-12-12T06:47:45.709Z,23.77
2018-12-12T06:48:45.720Z,23.85
2018-12-12T06:49:45.655Z,23.75
2018-12-12T06:50:45.841Z,23.72
2018-12-12T06:51:45.600Z,23.63
2018-12-12T06:52:45.540Z,23.56
2018-12-12T06:53:45.550Z,23.50
2018-12-12T06:54:45.492Z,23.52
2018-12-12T06:55:45.616Z,23.50
2018-12-12T06:56:45.461Z,23.52
2018-12-12T06:57:45.451Z,23.56
2018-12-12T06:58:45.420Z,23.56
2018-12-12T06:59:45.382Z,23.59
2018-12-12T07:00:45.390Z,23.66
2018-12-12T07:01:45.491Z,23.72
2018-12-12T07:02:45.321Z,23.74
2018-12-12T07:03:45.261Z,23.74
2018-12-12T07:04:45.242Z,23.67
2018-12-12T07:05:45.204Z,23.64
2018-12-12T07:06:45.182Z,23.66
2018-12-12T07:07:45.264Z,23.66
2018-12-12T07:08:45.144Z,23.62
2018-12-12T07:09:45.134Z,23.64
2018-12-12T07:10:45.086Z,23.64
2018-12-12T07:11:45.079Z,23.70
2018-12-12T07:12:45.025Z,23.85
2018-12-12T07:13:45.226Z,23.96
2018-12-12T07:14:44.969Z,23.93
2018-12-12T07:15:45.026Z,23.97
2018-12-12T07:16:46.575Z,23.89
2018-12-12T07:17:44.887Z,23.85
2018-12-12T07:18:45.057Z,23.99
2018-12-12T07:19:44.855Z,23.89
2018-12-12T07:20:44.817Z,23.96
2018-12-12T07:21:44.870Z,23.99
2018-12-12T07:22:44.778Z,24.07
2018-12-12T07:23:44.897Z,24.18
2018-12-12T07:24:44.708Z,24.21
2018-12-12T07:25:44.688Z,24.21
2018-12-12T07:26:44.685Z,24.19
2018-12-12T07:27:44.670Z,24.33
2018-12-12T07:28:44.752Z,24.34
2018-12-12T07:29:44.593Z,24.30
2018-12-12T07:30:46.180Z,24.30
2018-12-12T07:31:44.530Z,24.22
2018-12-12T07:32:44.510Z,24.18
2018-12-12T07:33:44.631Z,24.08
2018-12-12T07:34:44.443Z,24.08
2018-12-12T07:35:44.427Z,24.00
2018-12-12T07:36:44.427Z,23.89
2018-12-12T07:37:44.340Z,23.92
2018-12-12T07:38:44.359Z,24.02
2018-12-12T07:39:44.497Z,24.07
2018-12-12T07:40:44.302Z,24.03
2018-12-12T07:41:44.293Z,24.08
2018-12-12T07:42:44.228Z,23.96
2018-12-12T07:43:44.220Z,24.15
2018-12-12T07:44:44.203Z,24.22
2018-12-12T07:45:44.273Z,24.39
2018-12-12T07:46:44.165Z,24.32
2018-12-12T07:47:44.201Z,24.24
2018-12-12T07:48:44.079Z,24.24
2018-12-12T07:49:44.058Z,24.22
2018-12-12T07:50:44.197Z,24.09
2018-12-12T07:51:43.995Z,24.08
2018-12-12T07:52:44.025Z,24.04
2018-12-12T07:53:43.975Z,24.08
2018-12-12T07:54:43.936Z,23.99
2018-12-12T07:55:43.988Z,23.93
2018-12-12T07:56:43.866Z,23.97
2018-12-12T07:57:43.847Z,23.92
2018-12-12T07:58:43.926Z,23.87
2018-12-12T07:59:43.795Z,23.96
2018-12-12T08:00:43.892Z,23.94
2018-12-12T08:01:43.775Z,23.96
2018-12-12T08:02:43.721Z,24.09
2018-12-12T08:03:43.704Z,24.17
2018-12-12T08:04:43.679Z,24.19
2018-12-12T08:05:43.729Z,24.22
2018-12-12T08:06:43.658Z,24.22
2018-12-12T08:07:43.579Z,24.21
2018-12-12T08:08:43.567Z,24.07
2018-12-12T08:09:43.538Z,24.12
2018-12-12T08:10:43.498Z,24.19
2018-12-12T08:11:43.582Z,24.12
2018-12-12T08:12:43.444Z,24.12
2018-12-12T08:13:43.437Z,24.08
2018-12-12T08:14:43.408Z,24.02
2018-12-12T08:15:43.396Z,24.02
2018-12-12T08:16:43.345Z,23.92
2018-12-12T08:17:43.430Z,23.93
2018-12-12T08:18:43.284Z,23.87
2018-12-12T08:19:43.252Z,23.81
2018-12-12T08:20:43.271Z,23.72
2018-12-12T08:21:43.231Z,23.82
2018-12-12T08:22:43.188Z,23.99
2018-12-12T08:23:43.273Z,23.87
2018-12-12T08:24:43.126Z,23.93
2018-12-12T08:25:43.107Z,23.85
2018-12-12T08:26:43.095Z,23.84
2018-12-12T08:27:43.039Z,23.87
2018-12-12T08:28:43.200Z,23.78
2018-12-12T08:29:42.996Z,23.94
2018-12-12T08:30:43.049Z,24.09
2018-12-12T08:31:42.975Z,24.09
2018-12-12T08:32:42.941Z,24.09
2018-12-12T08:33:43.206Z,24.03
2018-12-12T08:34:42.868Z,24.02
2018-12-12T08:35:42.840Z,24.00
2018-12-12T08:36:42.836Z,24.09
2018-12-12T08:37:42.816Z,23.94
2018-12-12T08:38:42.861Z,23.96
2018-12-12T08:39:42.774Z,24.11
2018-12-12T08:40:42.743Z,24.11
2018-12-12T08:41:42.701Z,24.15
2018-12-12T08:42:42.913Z,24.07
2018-12-12T08:43:42.738Z,24.22
2018-12-12T08:44:42.627Z,24.24
2018-12-12T08:45:42.821Z,24.19
2018-12-12T08:46:42.551Z,24.22
2018-12-12T08:47:42.521Z,24.24
2018-12-12T08:48:42.599Z,24.29
2018-12-12T08:49:42.479Z,24.45
2018-12-12T08:50:42.455Z,24.45
2018-12-12T08:51:42.422Z,24.40
2018-12-12T08:52:42.394Z,24.36
2018-12-12T08:53:42.379Z,24.34
2018-12-12T08:54:42.456Z,24.30
2018-12-12T08:55:42.355Z,24.32
2018-12-12T08:56:42.387Z,24.22
2018-12-12T08:57:42.265Z,24.26
2018-12-12T08:58:42.330Z,24.07
2018-12-12T08:59:42.260Z,24.15
2018-12-12T09:00:42.292Z,24.22
2018-12-12T09:01:42.367Z,24.26
2018-12-12T09:02:42.142Z,24.32
2018-12-12T09:03:42.116Z,24.33
2018-12-12T09:04:42.108Z,24.37
2018-12-12T09:05:42.175Z,24.44
2018-12-12T09:06:42.042Z,24.34
2018-12-12T09:07:42.122Z,24.46
2018-12-12T09:08:42.150Z,24.51
2018-12-12T09:09:41.957Z,24.49
2018-12-12T09:10:42.107Z,24.48
2018-12-12T09:11:41.997Z,24.54
2018-12-12T09:12:41.874Z,24.49
2018-12-12T09:13:41.856Z,24.55
2018-12-12T09:14:41.946Z,24.42
2018-12-12T09:15:41.987Z,24.33
2018-12-12T09:16:41.775Z,24.32
2018-12-12T09:17:41.743Z,24.34
2018-12-12T09:18:41.727Z,24.37
2018-12-12T09:19:41.705Z,24.19
2018-12-12T09:20:41.810Z,24.21
2018-12-12T09:21:41.629Z,24.18
2018-12-12T09:22:41.609Z,24.14
2018-12-12T09:23:41.580Z,24.11
2018-12-12T09:24:41.547Z,24.14
2018-12-12T09:25:41.538Z,24.04
2018-12-12T09:26:41.600Z,24.08
2018-12-12T09:27:41.476Z,23.96
2018-12-12T09:28:41.466Z,23.89
2018-12-12T09:29:41.428Z,23.93
2018-12-12T09:30:41.405Z,23.85
2018-12-12T09:31:41.386Z,23.87
2018-12-12T09:32:41.448Z,23.96
2018-12-12T09:33:41.321Z,23.92
2018-12-12T09:34:41.283Z,23.97
2018-12-12T09:35:41.262Z,23.97
2018-12-12T09:36:41.248Z,23.92
2018-12-12T09:37:41.225Z,23.96
2018-12-12T09:38:41.288Z,23.99
2018-12-12T09:39:41.163Z,23.81
2018-12-12T09:40:41.175Z,23.94
2018-12-12T09:41:41.116Z,24.00
2018-12-12T09:42:41.080Z,24.07
2018-12-12T09:43:41.212Z,24.04
2018-12-12T09:44:41.048Z,24.14
2018-12-12T09:45:41.006Z,24.27
2018-12-12T09:46:40.982Z,24.19
2018-12-12T09:47:40.944Z,24.21
2018-12-12T09:48:41.071Z,24.37
2018-12-12T09:49:40.897Z,24.39
2018-12-12T09:50:40.867Z,24.44
2018-12-12T09:51:40.838Z,24.54
2018-12-12T09:52:40.831Z,24.51
2018-12-12T09:53:40.896Z,24.48
2018-12-12T09:54:40.764Z,24.58
2018-12-12T09:55:40.775Z,24.44
2018-12-12T09:56:40.704Z,24.42
2018-12-12T09:57:40.684Z,24.33
2018-12-12T09:58:40.765Z,24.36
2018-12-12T09:59:40.661Z,24.34
2018-12-12T10:00:40.599Z,24.32
2018-12-12T10:01:40.594Z,24.24
2018-12-12T10:02:40.560Z,24.32
2018-12-12T10:03:40.542Z,24.30
2018-12-12T10:04:40.607Z,24.34
2018-12-12T10:05:40.479Z,24.33
2018-12-12T10:06:40.466Z,24.36
2018-12-12T10:07:40.428Z,24.42
2018-12-12T10:08:40.405Z,24.32
2018-12-12T10:09:40.361Z,24.44
2018-12-12T10:10:40.462Z,24.42
2018-12-12T10:11:40.317Z,24.44
2018-12-12T10:12:40.306Z,24.40
2018-12-12T10:13:40.269Z,24.42
2018-12-12T10:14:40.301Z,24.39
2018-12-12T10:15:40.219Z,24.44
2018-12-12T10:16:40.288Z,24.44
2018-12-12T10:17:40.168Z,24.40
2018-12-12T10:18:40.142Z,24.37
2018-12-12T10:19:40.109Z,24.24
2018-12-12T10:20:40.095Z,24.18
2018-12-12T10:21:40.149Z,24.07
2018-12-12T10:22:40.033Z,23.94
2018-12-12T10:23:40.010Z,23.87
2018-12-12T10:24:39.970Z,23.79
2018-12-12T10:25:39.955Z,23.74
2018-12-12T10:26:40.020Z,23.57
2018-12-12T10:27:39.904Z,23.52
2018-12-12T10:28:39.871Z,23.44
2018-12-12T10:29:39.842Z,23.53
2018-12-12T10:30:39.826Z,23.45
2018-12-12T10:31:39.939Z,23.45
2018-12-12T10:32:39.762Z,23.37
2018-12-12T10:33:39.743Z,23.32
2018-12-12T10:34:39.786Z,23.35
2018-12-12T10:35:39.692Z,23.26
2018-12-12T10:36:39.657Z,23.12
2018-12-12T10:37:39.776Z,23.10
2018-12-12T10:38:39.613Z,23.18
2018-12-12T10:39:39.584Z,23.09
2018-12-12T10:40:39.571Z,23.04
2018-12-12T10:41:39.524Z,23.07
2018-12-12T10:42:39.575Z,23.07
2018-12-12T10:43:39.641Z,23.04
2018-12-12T10:44:39.450Z,23.04
2018-12-12T10:45:39.442Z,23.15
2018-12-12T10:46:39.395Z,23.29
2018-12-12T10:47:39.365Z,23.34
2018-12-12T10:48:39.349Z,23.32
2018-12-12T10:49:39.416Z,23.34
2018-12-12T10:50:39.287Z,23.44
2018-12-12T10:51:39.292Z,23.38
2018-12-12T10:52:39.256Z,23.47
2018-12-12T10:53:39.220Z,23.34
2018-12-12T10:54:39.282Z,23.29
2018-12-12T10:55:39.168Z,23.35
2018-12-12T10:56:39.150Z,23.35
2018-12-12T10:57:39.107Z,23.14
2018-12-12T10:58:39.079Z,23.09
2018-12-12T10:59:39.152Z,22.94
2018-12-12T11:00:39.041Z,22.86
2018-12-12T11:01:39.155Z,22.89
2018-12-12T11:02:38.973Z,22.91
2018-12-12T11:03:44.168Z,22.86
2018-12-12T11:04:39.080Z,22.88
2018-12-12T11:05:38.917Z,22.70
2018-12-12T11:06:38.870Z,22.76
2018-12-12T11:07:38.840Z,22.84
2018-12-12T11:08:38.814Z,22.85
2018-12-12T11:09:38.781Z,22.84
2018-12-12T11:10:38.862Z,22.70
2018-12-12T11:11:38.771Z,22.85
2018-12-12T11:12:38.692Z,22.71
2018-12-12T11:13:38.708Z,22.76
2018-12-12T11:14:38.667Z,22.70
2018-12-12T11:15:38.616Z,22.76
2018-12-12T11:16:38.722Z,22.81
2018-12-12T11:17:38.577Z,22.85
2018-12-12T11:18:38.571Z,22.82
2018-12-12T11:19:38.525Z,22.82
2018-12-12T11:20:38.515Z,22.81
2018-12-12T11:21:38.646Z,22.75
2018-12-12T11:22:38.473Z,22.66
2018-12-12T11:23:38.431Z,22.69
2018-12-12T11:24:38.379Z,22.75
2018-12-12T11:25:38.359Z,22.86
2018-12-12T11:26:38.342Z,22.82
2018-12-12T11:27:38.450Z,22.82
2018-12-12T11:28:38.275Z,22.82
2018-12-12T11:29:38.252Z,22.84
2018-12-12T11:30:38.235Z,22.81
2018-12-12T11:31:38.188Z,22.86
2018-12-12T11:32:38.167Z,22.84
2018-12-12T11:33:38.302Z,22.86
2018-12-12T11:34:38.137Z,22.85
2018-12-12T11:35:38.114Z,22.86
2018-12-12T11:36:38.257Z,22.84
2018-12-12T11:37:38.048Z,23.01
2018-12-12T11:38:38.186Z,22.94
2018-12-12T11:39:38.015Z,23.00
2018-12-12T11:40:37.973Z,23.04
2018-12-12T11:41:37.954Z,23.01
2018-12-12T11:42:37.902Z,22.96
2018-12-12T11:43:37.973Z,22.94
2018-12-12T11:44:37.878Z,22.96
2018-12-12T11:45:37.832Z,22.92
2018-12-12T11:46:37.805Z,22.88
2018-12-12T11:47:37.763Z,22.89
2018-12-12T11:48:37.819Z,22.97
2018-12-12T11:49:38.228Z,22.99
2018-12-12T11:50:37.830Z,22.94
2018-12-12T11:51:37.752Z,23.04
2018-12-12T11:52:37.712Z,23.01
2018-12-12T11:53:37.617Z,23.04
2018-12-12T11:54:37.745Z,23.14
2018-12-12T11:55:37.573Z,23.15
2018-12-12T11:56:37.594Z,23.12
2018-12-12T11:57:37.520Z,23.10
2018-12-12T11:58:37.536Z,23.22
2018-12-12T11:59:37.573Z,23.12
2018-12-12T12:00:38.967Z,23.19
2018-12-12T12:01:37.397Z,23.21
2018-12-12T12:02:37.377Z,23.32
2018-12-12T12:03:37.388Z,23.34
2018-12-12T12:04:37.688Z,23.35
2018-12-12T12:05:37.404Z,23.35
2018-12-12T12:06:37.277Z,23.47
2018-12-12T12:07:37.239Z,23.47
2018-12-12T12:08:37.210Z,23.47
2018-12-12T12:09:37.176Z,23.45
2018-12-12T12:10:37.307Z,23.55
2018-12-12T12:11:37.310Z,23.52
2018-12-12T12:12:37.114Z,23.52
2018-12-12T12:13:37.088Z,23.57
2018-12-12T12:14:37.055Z,23.44
2018-12-12T12:15:37.190Z,23.44
2018-12-12T12:16:37.011Z,23.53
2018-12-12T12:17:37.024Z,23.56
2018-12-12T12:18:36.932Z,23.59
2018-12-12T12:19:36.926Z,23.59
2018-12-12T12:20:36.899Z,23.55
2018-12-12T12:21:37.026Z,23.62
2018-12-12T12:22:36.841Z,23.62
2018-12-12T12:23:36.829Z,23.57
2018-12-12T12:24:36.789Z,23.70
2018-12-12T12:25:36.752Z,23.74
2018-12-12T12:26:36.794Z,23.85
2018-12-12T12:27:36.872Z,23.87
2018-12-12T12:28:36.724Z,23.90
2018-12-12T12:29:36.661Z,23.97
2018-12-12T12:30:36.626Z,23.97
2018-12-12T12:31:36.612Z,24.02
2018-12-12T12:32:36.676Z,24.09
2018-12-12T12:33:36.546Z,24.12
2018-12-12T12:34:36.593Z,24.24
2018-12-12T12:35:36.502Z,24.19
2018-12-12T12:36:36.475Z,24.21
2018-12-12T12:37:36.553Z,24.24
2018-12-12T12:38:36.428Z,24.21
2018-12-12T12:39:36.402Z,24.11
2018-12-12T12:40:36.362Z,24.17
2018-12-12T12:41:36.363Z,24.14
2018-12-12T12:42:36.344Z,24.19
2018-12-12T12:43:36.449Z,24.22
2018-12-12T12:44:36.248Z,24.26
2018-12-12T12:45:36.238Z,24.33
2018-12-12T12:46:36.199Z,24.22
2018-12-12T12:47:36.204Z,24.26
2018-12-12T12:48:36.266Z,24.26
2018-12-12T12:49:36.145Z,24.17
2018-12-12T12:50:36.123Z,24.19
2018-12-12T12:51:36.080Z,24.26
2018-12-12T12:52:36.041Z,24.26
2018-12-12T12:53:36.038Z,24.24
2018-12-12T12:54:36.103Z,24.17
2018-12-12T12:55:35.960Z,24.22
2018-12-12T12:56:35.922Z,24.19
2018-12-12T12:57:36.464Z,24.22
2018-12-12T12:58:35.947Z,24.36
2018-12-12T12:59:35.927Z,24.36
2018-12-12T13:00:35.949Z,24.36
2018-12-12T13:01:35.924Z,24.39
2018-12-12T13:02:35.782Z,24.45
2018-12-12T13:03:35.758Z,24.49
2018-12-12T13:04:35.743Z,24.52
2018-12-12T13:05:35.812Z,24.49
2018-12-12T13:06:35.700Z,24.46
2018-12-12T13:07:35.644Z,24.49
2018-12-12T13:08:35.633Z,24.54
2018-12-12T13:09:35.605Z,24.59
2018-12-12T13:10:35.678Z,24.64
2018-12-12T13:11:35.572Z,24.63
2018-12-12T13:12:35.547Z,24.55
2018-12-12T13:13:35.589Z,24.61
2018-12-12T13:14:35.486Z,24.64
2018-12-12T13:15:35.988Z,24.66
2018-12-12T13:16:37.122Z,24.66
2018-12-12T13:17:35.398Z,24.63
2018-12-12T13:18:35.850Z,24.66
2018-12-12T13:19:36.327Z,24.67
2018-12-12T13:20:35.836Z,24.63
2018-12-12T13:21:35.430Z,24.74
2018-12-12T13:22:35.856Z,24.90
2018-12-12T13:23:35.861Z,24.86
2018-12-12T13:24:35.627Z,25.08
2018-12-12T13:25:35.505Z,25.05
2018-12-12T13:26:35.649Z,25.09
2018-12-12T13:27:35.642Z,25.19
2018-12-12T13:28:36.524Z,25.34
2018-12-12T13:29:35.562Z,25.48
2018-12-12T13:30:35.297Z,25.76
2018-12-12T13:31:35.524Z,25.66
2018-12-12T13:32:35.571Z,25.69
2018-12-12T13:33:35.322Z,25.71
2018-12-12T13:34:35.993Z,25.69
2018-12-12T13:35:35.226Z,25.71
2018-12-12T13:36:35.451Z,25.78
2018-12-12T13:37:35.287Z,26.00
2018-12-12T13:38:35.372Z,26.03
2018-12-12T13:39:35.295Z,26.23
2018-12-12T13:40:35.529Z,26.31
2018-12-12T13:41:35.607Z,26.50
2018-12-12T13:42:34.760Z,26.72
2018-12-12T13:43:35.461Z,26.74
2018-12-12T13:44:35.411Z,26.87
2018-12-12T13:45:35.141Z,26.86
2018-12-12T13:46:34.927Z,26.91
2018-12-12T13:47:34.797Z,26.90
2018-12-12T13:48:34.810Z,26.99
2018-12-12T13:49:34.754Z,27.04
2018-12-12T13:50:35.096Z,27.09
2018-12-12T13:51:34.843Z,27.09
2018-12-12T13:52:35.310Z,27.15
2018-12-12T13:53:34.917Z,27.34
2018-12-12T13:54:35.271Z,27.45
2018-12-12T13:55:34.963Z,27.48
2018-12-12T13:56:35.439Z,27.55
2018-12-12T13:57:34.368Z,27.57
2018-12-12T13:58:34.486Z,27.72
2018-12-12T13:59:34.890Z,27.89
2018-12-12T14:00:39.088Z,28.05
2018-12-12T14:01:34.946Z,27.91
2018-12-12T14:02:34.941Z,27.76
2018-12-12T14:03:34.646Z,27.68
2018-12-12T14:04:34.622Z,27.66
2018-12-12T14:05:34.350Z,27.66
2018-12-12T14:06:34.533Z,27.79
2018-12-12T14:07:34.119Z,27.75
2018-12-12T14:08:34.817Z,27.79
2018-12-12T14:09:34.321Z,27.84
2018-12-12T14:10:34.360Z,27.84
2018-12-12T14:11:34.428Z,28.06
2018-12-12T14:12:34.257Z,28.14
2018-12-12T14:13:34.241Z,28.17
2018-12-12T14:14:34.670Z,28.30
2018-12-12T14:15:34.246Z,28.38
2018-12-12T14:16:34.441Z,28.54
2018-12-12T14:17:33.874Z,28.63
2018-12-12T14:18:34.362Z,28.68
2018-12-12T14:19:34.532Z,28.76
2018-12-12T14:20:34.299Z,28.88
2018-12-12T14:21:33.995Z,28.92
2018-12-12T14:22:34.051Z,28.63
2018-12-12T14:24:43.847Z,28.79
2018-12-12T14:25:43.595Z,28.90
2018-12-12T14:26:43.669Z,28.91
2018-12-12T14:27:43.554Z,29.03
2018-12-12T14:28:43.564Z,29.02
2018-12-12T14:29:44.231Z,29.17
2018-12-12T14:30:43.905Z,29.32
2018-12-12T14:31:43.929Z,29.39
2018-12-12T14:32:43.891Z,29.39
2018-12-12T14:33:43.707Z,29.60
2018-12-12T14:34:43.560Z,29.60
2018-12-12T14:35:43.990Z,29.51
2018-12-12T14:36:43.779Z,29.47
2018-12-12T14:37:43.547Z,29.54
2018-12-12T14:38:43.801Z,29.67
2018-12-12T14:39:43.786Z,29.72
2018-12-12T14:40:43.718Z,29.85
2018-12-12T14:41:44.542Z,29.77
2018-12-12T14:42:43.707Z,29.85
2018-12-12T14:43:43.171Z,29.81
2018-12-12T14:44:43.553Z,29.77
2018-12-12T14:45:43.121Z,29.85
2018-12-12T14:46:43.546Z,29.92
2018-12-12T14:47:43.660Z,29.89
2018-12-12T14:48:43.239Z,30.00
2018-12-12T14:49:43.016Z,30.00
2018-12-12T14:50:42.998Z,30.03
2018-12-12T14:51:42.977Z,29.98
2018-12-12T14:52:43.060Z,30.06
2018-12-12T14:53:42.938Z,30.06
2018-12-12T14:54:42.920Z,30.18
2018-12-12T14:55:42.899Z,30.09
2018-12-12T14:56:42.860Z,30.19
2018-12-12T14:57:42.922Z,30.24
2018-12-12T14:58:42.825Z,30.25
2018-12-12T14:59:42.780Z,30.11
2018-12-12T15:00:42.781Z,30.14
2018-12-12T15:01:42.743Z,30.21
2018-12-12T15:02:42.829Z,30.19
2018-12-12T15:03:42.691Z,30.22
2018-12-12T15:04:42.672Z,30.09
2018-12-12T15:05:42.634Z,30.07
2018-12-12T15:06:42.628Z,30.10
2018-12-12T15:07:42.734Z,30.16
2018-12-12T15:08:42.590Z,30.18
2018-12-12T15:09:42.552Z,30.07
2018-12-12T15:10:42.548Z,30.14
2018-12-12T15:11:42.514Z,30.19
2018-12-12T15:12:42.579Z,30.06
2018-12-12T15:13:42.469Z,30.09
2018-12-12T15:14:43.456Z,30.09
2018-12-12T15:15:42.397Z,30.09
2018-12-12T15:16:42.399Z,30.00
2018-12-12T15:17:42.348Z,30.03
2018-12-12T15:18:42.544Z,30.06
2018-12-12T15:19:42.342Z,30.14
2018-12-12T15:20:42.305Z,30.14
2018-12-12T15:21:42.284Z,30.29
2018-12-12T15:22:42.236Z,30.10
2018-12-12T15:23:42.216Z,30.21
2018-12-12T15:24:42.314Z,30.26
2018-12-12T15:25:42.200Z,30.35
2018-12-12T15:26:42.164Z,30.39
2018-12-12T15:27:42.119Z,30.42
2018-12-12T15:28:42.153Z,30.56
2018-12-12T15:29:42.273Z,30.64
2018-12-12T15:30:42.066Z,30.62
2018-12-12T15:31:42.036Z,30.70
2018-12-12T15:32:42.021Z,30.69
2018-12-12T15:33:41.997Z,30.63
2018-12-12T15:34:42.398Z,30.62
2018-12-12T15:35:41.939Z,30.59
2018-12-12T15:36:41.925Z,30.57
2018-12-12T15:37:41.905Z,30.67
2018-12-12T15:38:41.872Z,30.63
2018-12-12T15:39:41.940Z,30.42
2018-12-12T15:40:41.835Z,30.47
2018-12-12T15:41:41.799Z,30.42
2018-12-12T15:42:41.764Z,30.47
2018-12-12T15:43:41.748Z,30.47
2018-12-12T15:44:41.833Z,30.51
2018-12-12T15:45:41.722Z,30.59
2018-12-12T15:46:41.680Z,30.62
2018-12-12T15:47:41.657Z,30.57
2018-12-12T15:48:41.627Z,30.62
2018-12-12T15:49:41.754Z,30.47
2018-12-12T15:50:41.594Z,30.57
2018-12-12T15:51:41.558Z,30.69
2018-12-12T15:52:41.537Z,30.73
2018-12-12T15:53:41.504Z,30.73
2018-12-12T15:54:41.522Z,30.88
2018-12-12T15:55:41.575Z,31.06
2018-12-12T15:56:41.453Z,31.16
2018-12-12T15:57:41.421Z,31.04
2018-12-12T15:58:41.412Z,30.91
2018-12-12T15:59:41.427Z,30.99
2018-12-12T16:00:41.379Z,31.01
2018-12-12T16:01:41.492Z,31.06
2018-12-12T16:02:41.311Z,31.06
2018-12-12T16:03:41.276Z,31.13
2018-12-12T16:04:41.275Z,31.15
2018-12-12T16:05:41.238Z,31.08
2018-12-12T16:06:41.217Z,30.94
2018-12-12T16:07:41.317Z,30.89
2018-12-12T16:08:41.171Z,30.85
2018-12-12T16:09:41.140Z,31.01
2018-12-12T16:10:41.128Z,30.94
2018-12-12T16:11:41.108Z,31.07
2018-12-12T16:12:41.193Z,31.04
2018-12-12T16:13:41.068Z,31.18
2018-12-12T16:14:41.027Z,31.21
2018-12-12T16:15:41.005Z,31.22
2018-12-12T16:16:41.009Z,31.30
2018-12-12T16:17:41.070Z,31.22
2018-12-12T16:18:40.931Z,31.31
2018-12-12T16:19:40.929Z,31.31
2018-12-12T16:20:40.922Z,31.33
2018-12-12T16:21:40.891Z,31.50
2018-12-12T16:22:40.952Z,31.50
2018-12-12T16:23:40.849Z,31.49
2018-12-12T16:24:40.810Z,31.50
2018-12-12T16:25:40.787Z,31.33
2018-12-12T16:26:40.799Z,31.28
2018-12-12T16:27:40.848Z,31.33
2018-12-12T16:28:40.708Z,31.30
2018-12-12T16:29:40.711Z,31.40
2018-12-12T16:30:40.684Z,31.31
2018-12-12T16:31:40.644Z,31.31
2018-12-12T16:32:40.715Z,31.33
2018-12-12T16:33:40.682Z,31.37
2018-12-12T16:34:40.591Z,31.43
2018-12-12T16:35:40.562Z,31.34
2018-12-12T16:36:40.555Z,31.43
2018-12-12T16:37:40.653Z,31.44
2018-12-12T16:38:40.624Z,31.13
2018-12-12T16:39:40.477Z,31.06
2018-12-12T16:40:40.446Z,30.94
2018-12-12T16:41:40.425Z,30.59
2018-12-12T16:42:40.415Z,30.60
2018-12-12T16:43:40.369Z,30.81
2018-12-12T16:44:40.475Z,31.12
2018-12-12T16:45:40.334Z,31.01
2018-12-12T16:46:40.308Z,31.18
2018-12-12T16:47:40.288Z,31.13
2018-12-12T16:48:40.259Z,31.15
2018-12-12T16:49:40.237Z,31.26
2018-12-12T16:50:40.385Z,31.23
2018-12-12T16:51:40.216Z,31.23
2018-12-12T16:52:40.203Z,31.16
2018-12-12T16:53:40.221Z,31.13
2018-12-12T16:54:40.139Z,31.21
2018-12-12T16:55:40.273Z,31.15
2018-12-12T16:56:40.118Z,31.19
2018-12-12T16:57:40.050Z,31.19
2018-12-12T16:58:40.035Z,31.26
2018-12-12T16:59:40.003Z,31.16
2018-12-12T17:00:40.157Z,31.30
2018-12-12T17:01:39.987Z,31.23
2018-12-12T17:02:39.951Z,31.22
2018-12-12T17:03:39.931Z,31.19
2018-12-12T17:04:39.898Z,31.18
2018-12-12T17:05:40.026Z,31.23
2018-12-12T17:06:39.850Z,31.21
2018-12-12T17:07:39.834Z,31.26
2018-12-12T17:08:39.941Z,31.08